Bogart, Georgia
Current Conditions -  °F | °C
As of 3:49 AM on Monday 29 Dec 2014 (Local Time) from KAHN Reporting Station
Light Rain Light Rain  
Wind Chill: 55°   Ceiling: 400
Heat Index: 55°   Visibility: 4mi
Dew Point: 55°   Wind: 6mph
Humidity: 100%   Direction: 320°NW
Pressure: 30.05"   Gusts: NA
Location:  33.95°N, 83.53°W
Report Text: KAHN 290849Z AUTO 32005KT 4SM -RA BR BKN004 BKN026 OVC033 13/13 A3005 RMK AO2 P0013
Loading
Personal Weather Stations






























Interactive Weather Map New forecast layout! Learn more

10-Day Weather Forecast

Advertisements
Track Severe Weather on mobile